Dupage Airport


Codes: KDPA/DPA
Name: Dupage Airport
City: Chicago/West Chicago
Country: United States
Elevation: 759 ft.
Website:
Wikipedia:

Photos at Dupage Airport


   Photos courtesy of SpottingLog. You can add your own sightings and photos by signing up for a free trial today.



No photos found.

Weather at Dupage Airport


Time (UTC)DescriptionTempratureWindCloud coverageVisibilityPressureHumidity
21-Jun-2024 12:00Light Rain19°C2 mph, SE0%10000m1022hPa91%
21-Jun-2024 15:00Clear Sky21°C4 mph, S7%10000m1022hPa85%
21-Jun-2024 18:00Clear Sky26°C9 mph, SW6%10000m1021hPa69%
21-Jun-2024 21:00Clear Sky30°C9 mph, SW0%10000m1018hPa56%
22-Jun-2024 00:00Clear Sky28°C7 mph, SW1%10000m1017hPa73%
22-Jun-2024 03:00Clear Sky23°C7 mph, S3%10000m1017hPa84%
22-Jun-2024 06:00Clear Sky21°C7 mph, SW8%10000m1017hPa85%
22-Jun-2024 09:00Broken Clouds21°C9 mph, SW55%10000m1015hPa84%
22-Jun-2024 12:00Broken Clouds22°C9 mph, SW71%10000m1015hPa86%
22-Jun-2024 15:00Broken Clouds26°C13 mph, SW82%10000m1014hPa72%
22-Jun-2024 18:00Light Rain29°C16 mph, SW91%10000m1011hPa65%
22-Jun-2024 21:00Light Rain30°C18 mph, SW94%10000m1009hPa65%
23-Jun-2024 00:00Light Rain27°C16 mph, SW60%10000m1007hPa75%
23-Jun-2024 03:00Moderate Rain23°C16 mph, SW100%10000m1007hPa93%
23-Jun-2024 06:00Moderate Rain23°C11 mph, W100%10000m1006hPa96%
23-Jun-2024 09:00Light Rain22°C7 mph, NW99%10000m1007hPa97%
23-Jun-2024 12:00Overcast Clouds19°C9 mph, NW99%10000m1009hPa93%
23-Jun-2024 15:00Overcast Clouds22°C9 mph, NW95%10000m1010hPa81%
23-Jun-2024 18:00Broken Clouds25°C11 mph, NW74%10000m1010hPa67%
23-Jun-2024 21:00Overcast Clouds25°C9 mph, N100%10000m1010hPa70%
24-Jun-2024 00:00Broken Clouds23°C11 mph, N75%10000m1010hPa81%
24-Jun-2024 03:00Clear Sky18°C4 mph, N0%10000m1011hPa91%
24-Jun-2024 06:00Few Clouds20°C2 mph, NW18%10000m1011hPa83%
24-Jun-2024 09:00Scattered Clouds17°C4 mph, W33%10000m1011hPa92%
24-Jun-2024 12:00Few Clouds20°C4 mph, SW16%10000m1012hPa87%
24-Jun-2024 15:00Clear Sky25°C9 mph, SW4%10000m1012hPa73%
24-Jun-2024 18:00Clear Sky28°C11 mph, SW6%10000m1010hPa64%
24-Jun-2024 21:00Scattered Clouds29°C11 mph, SW44%10000m1009hPa65%
25-Jun-2024 00:00Scattered Clouds28°C9 mph, S30%10000m1008hPa76%
25-Jun-2024 03:00Clear Sky24°C9 mph, S0%10000m1008hPa91%
25-Jun-2024 06:00Clear Sky24°C13 mph, S0%10000m1007hPa88%
25-Jun-2024 09:00Clear Sky23°C11 mph, SW0%10000m1006hPa95%
25-Jun-2024 12:00Scattered Clouds24°C16 mph, SW29%10000m1006hPa91%
25-Jun-2024 15:00Clear Sky30°C18 mph, SW4%10000m1005hPa71%
25-Jun-2024 18:00Clear Sky32°C20 mph, SW2%10000m1003hPa64%
25-Jun-2024 21:00Clear Sky33°C20 mph, SW0%10000m1002hPa65%
26-Jun-2024 00:00Light Rain29°C16 mph, SW9%10000m1001hPa78%
26-Jun-2024 03:00Moderate Rain24°C9 mph, W86%10000m1003hPa94%
26-Jun-2024 06:00Light Rain22°C7 mph, NW95%10000m1004hPa98%
26-Jun-2024 09:00Overcast Clouds17°C11 mph, NW99%10000m1005hPa92%